Time;durP1;ratioP1;P1;durP2;ratioP2;P2;SDS_P1;SDS_P2;PMS_P1;PMS_P2;Temp;Humidity;BMP_temperature;BMP_pressure;BME280_temperature;BME280_humidity;BME280_pressure;Samples;Min_cycle;Max_cycle;Signal;HPM_P1;HPM_P2
2022/12/21 00:02:24;;;;;;;;;;;;;;;6.16;50.64;100304.25;4355277;32;34760;-63
2022/12/21 00:04:52;;;;;;;;;;;;;;;6.25;50.44;100302.03;4355826;32;34092;-63
2022/12/21 00:07:19;;;;;;;;;;;;;;;6.48;50.59;100305.37;4352013;32;32072;-63
2022/12/21 00:09:46;;;;;;;;;;;;;;;6.46;49.38;100304.59;4358557;32;32889;-63
2022/12/21 00:12:14;;;;;;;;;;;;;;;5.96;50.67;100308.72;4358185;32;34131;-63
2022/12/21 00:14:41;;;;;;;;;;;;;;;6.11;49.99;100311.59;4357270;32;34816;-62
2022/12/21 00:17:09;;;;;;;;;;;;;;;5.77;51.12;100316.66;4353218;32;32029;-62
2022/12/21 00:19:36;;;;;;;;;;;;;;;5.75;51.54;100310.56;4355958;32;35156;-63
2022/12/21 00:22:03;;;;;;;;;;;;;;;5.91;50.83;100301.87;4356559;32;33043;-62
2022/12/21 00:24:32;;;;;;;;;;;;;;;5.98;50.64;100298.03;4356197;32;36607;-62
2022/12/21 00:26:59;;;;;;;;;;;;;;;5.84;51.49;100306.59;4357928;32;33684;-62
2022/12/21 00:29:26;;;;;;;;;;;;;;;5.61;51.90;100308.50;4360177;32;34487;-63
2022/12/21 00:31:54;;;;;;;;;;;;;;;5.78;51.36;100302.44;4357972;32;34154;-63
2022/12/21 00:34:23;;;;;;;;;;;;;;;5.79;51.47;100301.50;4353474;32;35270;-62
2022/12/21 00:36:51;;;;;;;;;;;;;;;5.39;52.90;100294.47;4352663;32;32432;-63
2022/12/21 00:39:18;;;;;;;;;;;;;;;4.70;54.25;100293.97;4358999;32;34898;-63
2022/12/21 00:41:45;;;;;;;;;;;;;;;5.36;52.52;100297.28;4358447;32;32815;-64
2022/12/21 00:44:13;;;;;;;;;;;;;;;5.12;52.94;100293.91;4341907;32;33350;-62
2022/12/21 00:46:40;;;;;;;;;;;;;;;5.40;52.35;100290.06;4359684;32;33696;-62
2022/12/21 00:49:09;;;;;;;;;;;;;;;5.14;53.63;100294.72;4358324;32;32768;-63
2022/12/21 00:51:36;;;;;;;;;;;;;;;5.58;51.77;100290.06;4359589;32;35541;-63
2022/12/21 00:54:04;;;;;;;;;;;;;;;5.76;51.41;100282.19;4358573;32;34299;-63
2022/12/21 00:56:31;;;;;;;;;;;;;;;5.10;53.39;100290.47;4357425;32;32715;-63
2022/12/21 00:58:58;;;;;;;;;;;;;;;5.83;51.03;100292.47;4356165;32;34102;-63
2022/12/21 01:01:27;;;;;;;;;;;;;;;5.58;51.83;100292.72;4353968;32;35488;-63
2022/12/21 01:03:55;;;;;;;;;;;;;;;5.64;51.85;100290.72;4357745;32;35774;-63
2022/12/21 01:06:29;;;;;;;;;;;;;;;5.67;51.55;100283.47;4358220;32;34460;-63
2022/12/21 01:08:57;;;;;;;;;;;;;;;5.77;51.22;100294.53;4356332;32;32864;-63
2022/12/21 01:11:25;;;;;;;;;;;;;;;5.38;51.77;100293.63;4351846;32;34373;-63
2022/12/21 01:13:54;;;;;;;;;;;;;;;5.81;51.48;100290.81;4358841;32;34537;-63
2022/12/21 01:16:25;;;;;;;;;;;;;;;5.04;52.81;100290.72;4358596;32;33755;-63
2022/12/21 01:18:52;;;;;;;;;;;;;;;5.48;52.61;100279.94;4358078;32;34217;-63
2022/12/21 01:21:21;;;;;;;;;;;;;;;5.90;50.78;100285.06;4354410;32;34282;-63
2022/12/21 01:23:48;;;;;;;;;;;;;;;5.67;51.49;100277.31;4356032;32;35345;-63
2022/12/21 01:26:16;;;;;;;;;;;;;;;5.56;51.87;100278.66;4356960;32;32091;-64
2022/12/21 01:28:44;;;;;;;;;;;;;;;5.13;53.45;100269.09;4357988;32;34229;-63
2022/12/21 01:31:12;;;;;;;;;;;;;;;5.63;51.68;100263.31;4356419;32;34303;-64
2022/12/21 01:33:39;;;;;;;;;;;;;;;5.72;51.81;100260.22;4354646;32;32868;-63
2022/12/21 01:36:10;;;;;;;;;;;;;;;5.96;49.76;100260.91;4357803;32;33018;-64
2022/12/21 01:38:40;;;;;;;;;;;;;;;6.35;49.16;100246.59;4357667;32;34589;-64
2022/12/21 01:41:34;;;;;;;;;;;;;;;5.97;52.13;100249.34;4354818;32;33198;-64
2022/12/21 01:44:02;;;;;;;;;;;;;;;5.54;51.50;100247.81;4352713;32;33762;-63
2022/12/21 01:46:29;;;;;;;;;;;;;;;5.51;51.26;100242.62;4358375;32;32005;-64
2022/12/21 01:48:59;;;;;;;;;;;;;;;5.61;51.81;100243.91;4355730;32;32879;-64
2022/12/21 01:51:26;;;;;;;;;;;;;;;5.99;50.95;100242.16;4355449;32;34273;-64
2022/12/21 01:53:58;;;;;;;;;;;;;;;5.76;51.23;100231.72;4357454;32;34126;-63
2022/12/21 01:56:28;;;;;;;;;;;;;;;5.82;50.85;100236.75;4349119;32;34143;-63
2022/12/21 01:58:56;;;;;;;;;;;;;;;5.88;50.43;100230.31;4357321;32;33550;-63
2022/12/21 02:01:23;;;;;;;;;;;;;;;5.94;50.59;100228.25;4355967;32;34916;-63
2022/12/21 02:03:51;;;;;;;;;;;;;;;5.51;51.65;100230.22;4353758;32;34355;-63
2022/12/21 02:06:26;;;;;;;;;;;;;;;5.36;51.72;100226.47;4358166;32;33296;-63
2022/12/21 02:08:54;;;;;;;;;;;;;;;5.36;51.28;100214.97;4345327;32;35286;-63
2022/12/21 02:11:21;;;;;;;;;;;;;;;4.83;52.99;100219.09;4357563;32;35221;-63
2022/12/21 02:13:48;;;;;;;;;;;;;;;5.25;53.02;100218.12;4359370;32;32876;-63
2022/12/21 02:16:15;;;;;;;;;;;;;;;4.54;54.28;100214.22;4355214;32;32120;-63
2022/12/21 02:19:01;;;;;;;;;;;;;;;4.97;52.70;100215.00;4353305;32;34026;-63
2022/12/21 02:21:29;;;;;;;;;;;;;;;4.99;53.02;100215.78;4354917;32;34231;-63
2022/12/21 02:24:11;;;;;;;;;;;;;;;4.82;53.99;100204.13;4356501;32;34289;-63
2022/12/21 02:26:39;;;;;;;;;;;;;;;5.15;53.03;100200.91;4331288;32;806509;-64
2022/12/21 02:29:26;;;;;;;;;;;;;;;5.32;51.87;100206.28;4358965;32;34930;-63
2022/12/21 02:32:13;;;;;;;;;;;;;;;4.32;53.69;100201.00;4331786;32;32761;-63
2022/12/21 02:34:52;;;;;;;;;;;;;;;4.89;53.02;100200.28;4358172;32;35197;-64
2022/12/21 02:37:22;;;;;;;;;;;;;;;4.96;52.67;100194.72;4357910;32;31830;-63
2022/12/21 02:40:19;;;;;;;;;;;;;;;4.41;53.68;100184.69;4351417;32;34364;-62
2022/12/21 02:45:45;;;;;;;;;;;;;;;4.47;53.81;100180.94;4343764;32;34445;-62
2022/12/21 02:48:14;;;;;;;;;;;;;;;4.49;53.79;100166.66;4358784;32;33470;-63
2022/12/21 02:50:43;;;;;;;;;;;;;;;4.52;53.82;100166.53;4346307;32;32882;-62
2022/12/21 02:53:12;;;;;;;;;;;;;;;4.34;53.04;100173.50;4358669;32;34033;-63
2022/12/21 02:55:40;;;;;;;;;;;;;;;4.03;54.50;100173.06;4343597;32;33903;-62
2022/12/21 02:58:11;;;;;;;;;;;;;;;4.28;53.67;100171.09;4358809;32;34092;-62
2022/12/21 03:00:47;;;;;;;;;;;;;;;4.49;53.64;100166.66;4354628;32;34196;-63
2022/12/21 03:03:49;;;;;;;;;;;;;;;4.07;54.34;100169.34;4353200;32;33078;-63
2022/12/21 03:06:27;;;;;;;;;;;;;;;4.67;53.61;100157.91;4352578;32;34004;-63
2022/12/21 03:09:13;;;;;;;;;;;;;;;3.76;54.30;100162.66;4357655;32;33144;-63
2022/12/21 03:11:50;;;;;;;;;;;;;;;3.69;55.29;100162.06;4357866;32;34972;-63
2022/12/21 03:14:38;;;;;;;;;;;;;;;3.94;55.38;100153.94;4344492;32;33176;-63
2022/12/21 03:17:18;;;;;;;;;;;;;;;4.64;53.59;100143.94;4357631;32;34348;-63
2022/12/21 03:19:55;;;;;;;;;;;;;;;4.86;51.56;100146.50;4358440;32;33536;-63
2022/12/21 03:22:33;;;;;;;;;;;;;;;4.78;52.67;100141.53;4356900;32;34027;-63
2022/12/21 03:25:06;;;;;;;;;;;;;;;5.21;51.71;100136.94;4339719;32;35041;-63
2022/12/21 03:27:35;;;;;;;;;;;;;;;5.30;50.50;100127.69;4358074;32;34354;-63
2022/12/21 03:30:05;;;;;;;;;;;;;;;4.15;53.45;100124.87;4360282;32;32092;-63
2022/12/21 03:32:40;;;;;;;;;;;;;;;4.19;53.41;100122.00;4343158;32;35583;-63
2022/12/21 03:35:14;;;;;;;;;;;;;;;3.97;53.59;100134.44;4345118;32;33167;-63
2022/12/21 03:37:41;;;;;;;;;;;;;;;4.37;53.80;100138.91;4354536;32;34777;-63
2022/12/21 03:40:19;;;;;;;;;;;;;;;4.04;54.30;100142.97;4361487;32;33446;-63
2022/12/21 03:42:48;;;;;;;;;;;;;;;4.67;51.67;100146.47;4359893;32;34240;-63
2022/12/21 03:45:35;;;;;;;;;;;;;;;4.68;52.64;100153.47;4356347;32;34466;-63
2022/12/21 03:48:06;;;;;;;;;;;;;;;3.79;55.29;100146.66;4359556;32;35187;-62
2022/12/21 03:50:35;;;;;;;;;;;;;;;4.85;51.65;100150.09;4358744;32;34273;-63
2022/12/21 03:53:18;;;;;;;;;;;;;;;4.14;53.06;100154.91;4355890;32;33719;-63
2022/12/21 03:55:45;;;;;;;;;;;;;;;4.75;51.58;100149.66;4358440;32;34174;-62
2022/12/21 03:58:12;;;;;;;;;;;;;;;4.87;50.66;100154.38;4356931;32;34641;-63
2022/12/21 04:00:44;;;;;;;;;;;;;;;4.89;50.68;100135.75;4355021;32;34351;-62
2022/12/21 04:03:14;;;;;;;;;;;;;;;5.21;49.85;100136.94;4346408;32;34076;-62
2022/12/21 04:05:55;;;;;;;;;;;;;;;4.65;51.63;100154.50;4346025;32;32908;-64
2022/12/21 04:08:22;;;;;;;;;;;;;;;5.13;49.88;100147.03;4355721;32;34073;-63
2022/12/21 04:10:50;;;;;;;;;;;;;;;4.95;50.37;100150.56;4363000;32;33416;-63
2022/12/21 04:13:17;;;;;;;;;;;;;;;5.32;50.23;100147.03;4346050;32;32947;-63
2022/12/21 04:21:17;;;;;;;;;;;;;;;4.75;51.78;100136.38;4356668;32;33142;-68
2022/12/21 04:29:21;;;;;;;;;;;;;;;5.78;47.51;100127.12;4352823;32;34751;-62
2022/12/21 04:31:48;;;;;;;;;;;;;;;5.93;47.40;100111.41;4352723;32;32250;-62
2022/12/21 04:34:15;;;;;;;;;;;;;;;5.74;47.96;100114.91;4344278;32;32522;-62
2022/12/21 04:39:28;;;;;;;;;;;;;;;5.32;49.06;100113.41;4353552;32;32705;-62
2022/12/21 04:41:56;;;;;;;;;;;;;;;5.27;50.72;100118.09;4355054;32;33777;-62
2022/12/21 04:44:23;;;;;;;;;;;;;;;5.78;48.02;100113.00;4359228;32;34875;-62
2022/12/21 04:46:50;;;;;;;;;;;;;;;5.76;47.93;100118.37;4359780;32;34317;-61
2022/12/21 04:49:18;;;;;;;;;;;;;;;5.94;46.67;100116.66;4361858;32;34880;-62
2022/12/21 04:51:45;;;;;;;;;;;;;;;5.67;47.72;100113.50;4358453;32;32816;-62
2022/12/21 04:54:12;;;;;;;;;;;;;;;5.11;49.81;100114.44;4361513;32;35348;-63
2022/12/21 04:56:39;;;;;;;;;;;;;;;4.69;50.63;100123.41;4359541;32;35479;-62
2022/12/21 04:59:06;;;;;;;;;;;;;;;5.48;48.22;100116.19;4352543;32;33620;-62
2022/12/21 05:01:34;;;;;;;;;;;;;;;5.42;47.80;100107.66;4360382;32;33486;-62
2022/12/21 05:04:01;;;;;;;;;;;;;;;5.63;47.88;100103.97;4359529;32;33960;-62
2022/12/21 05:06:29;;;;;;;;;;;;;;;4.84;48.37;100106.78;4357550;32;32850;-62
2022/12/21 05:08:57;;;;;;;;;;;;;;;4.72;48.37;100114.44;4349412;32;33783;-62
2022/12/21 05:11:24;;;;;;;;;;;;;;;4.78;51.07;100111.50;4359408;32;33966;-62
2022/12/21 05:13:52;;;;;;;;;;;;;;;5.35;48.85;100110.59;4356083;32;34069;-62
2022/12/21 05:16:20;;;;;;;;;;;;;;;5.84;46.82;100104.69;4362373;32;34978;-62
2022/12/21 05:18:52;;;;;;;;;;;;;;;5.11;49.25;100101.16;4354434;32;32619;-62
2022/12/21 05:21:19;;;;;;;;;;;;;;;5.76;46.90;100105.09;4350351;32;33286;-62
2022/12/21 05:23:46;;;;;;;;;;;;;;;4.88;48.65;100102.22;4353279;32;32562;-62
2022/12/21 05:26:13;;;;;;;;;;;;;;;5.40;47.72;100085.66;4359778;32;34243;-62
2022/12/21 05:28:43;;;;;;;;;;;;;;;5.35;49.03;100093.81;4355188;32;34815;-62
2022/12/21 05:31:11;;;;;;;;;;;;;;;5.11;49.56;100085.25;4359270;32;33811;-62
2022/12/21 05:33:39;;;;;;;;;;;;;;;5.49;48.68;100088.72;4349589;32;33816;-62
2022/12/21 05:36:07;;;;;;;;;;;;;;;5.14;49.63;100098.37;4361258;32;33467;-61
2022/12/21 05:38:35;;;;;;;;;;;;;;;5.37;48.11;100098.13;4356388;32;33953;-62
2022/12/21 05:41:02;;;;;;;;;;;;;;;3.53;54.25;100101.81;4356226;32;32819;-62
2022/12/21 05:43:30;;;;;;;;;;;;;;;4.58;51.51;100107.94;4358024;32;33949;-62
2022/12/21 05:46:04;;;;;;;;;;;;;;;5.34;49.54;100102.72;4354976;32;34859;-62
2022/12/21 05:48:31;;;;;;;;;;;;;;;5.38;48.79;100097.19;4358054;32;32804;-62
2022/12/21 05:50:59;;;;;;;;;;;;;;;5.38;49.69;100086.56;4350118;32;31814;-62
2022/12/21 05:53:26;;;;;;;;;;;;;;;4.64;51.18;100093.56;4359845;32;33916;-61
2022/12/21 05:55:53;;;;;;;;;;;;;;;5.43;50.29;100083.72;4359280;32;34226;-62
2022/12/21 05:58:21;;;;;;;;;;;;;;;5.67;49.38;100086.09;4357298;32;34742;-62
2022/12/21 06:00:48;;;;;;;;;;;;;;;5.33;49.47;100083.28;4351698;32;33252;-62
2022/12/21 06:03:16;;;;;;;;;;;;;;;5.34;50.14;100073.53;4359515;32;34438;-62
2022/12/21 06:05:43;;;;;;;;;;;;;;;4.76;52.44;100081.56;4356758;32;35217;-62
2022/12/21 06:08:10;;;;;;;;;;;;;;;4.55;52.21;100091.31;4359872;32;34441;-61
2022/12/21 06:10:38;;;;;;;;;;;;;;;4.66;51.93;100089.94;4358389;32;32083;-62
2022/12/21 06:13:06;;;;;;;;;;;;;;;5.08;51.54;100096.84;4360070;32;34572;-62
2022/12/21 06:15:33;;;;;;;;;;;;;;;5.16;50.69;100092.97;4354990;32;34034;-62
2022/12/21 06:18:02;;;;;;;;;;;;;;;4.70;51.42;100093.28;4359944;32;34626;-62
2022/12/21 06:20:31;;;;;;;;;;;;;;;4.40;53.16;100084.94;4356632;32;33402;-62
2022/12/21 06:22:58;;;;;;;;;;;;;;;4.52;52.85;100086.16;4358648;32;35315;-62
2022/12/21 06:25:26;;;;;;;;;;;;;;;4.22;53.56;100086.56;4358061;32;33119;-62
2022/12/21 06:27:53;;;;;;;;;;;;;;;4.65;52.75;100098.81;4353824;32;33100;-62
2022/12/21 06:30:20;;;;;;;;;;;;;;;4.96;51.22;100097.41;4349278;32;33467;-62
2022/12/21 06:32:48;;;;;;;;;;;;;;;5.00;50.48;100091.03;4358205;32;35061;-62
2022/12/21 06:35:17;;;;;;;;;;;;;;;4.23;52.84;100103.34;4358456;32;32883;-62
2022/12/21 06:37:44;;;;;;;;;;;;;;;4.52;51.24;100096.75;4352402;32;34261;-62
2022/12/21 06:40:12;;;;;;;;;;;;;;;4.48;51.63;100088.09;4354738;32;33084;-62
2022/12/21 06:42:39;;;;;;;;;;;;;;;4.64;51.73;100077.66;4355265;32;34704;-62
2022/12/21 06:45:07;;;;;;;;;;;;;;;4.97;50.65;100082.34;4350671;32;34232;-62
2022/12/21 06:47:34;;;;;;;;;;;;;;;5.29;49.69;100078.19;4356499;32;34144;-62
2022/12/21 06:50:02;;;;;;;;;;;;;;;5.19;50.21;100071.59;4354272;32;33152;-62
2022/12/21 06:52:31;;;;;;;;;;;;;;;5.15;50.52;100068.22;4356795;32;35077;-62
2022/12/21 06:54:58;;;;;;;;;;;;;;;4.86;51.76;100078.41;4343998;32;34300;-62
2022/12/21 06:57:26;;;;;;;;;;;;;;;5.30;50.26;100075.47;4355407;32;34354;-62
2022/12/21 06:59:53;;;;;;;;;;;;;;;5.22;50.68;100069.66;4345630;32;31783;-65
2022/12/21 07:02:21;;;;;;;;;;;;;;;4.80;52.45;100062.78;4353542;32;34205;-63
2022/12/21 07:04:52;;;;;;;;;;;;;;;5.09;51.46;100079.12;4360489;32;35148;-62
2022/12/21 07:07:19;;;;;;;;;;;;;;;4.99;51.58;100084.00;4359208;32;34628;-62
2022/12/21 07:09:47;;;;;;;;;;;;;;;5.70;49.83;100065.56;4358695;32;34391;-62
2022/12/21 07:12:14;;;;;;;;;;;;;;;5.31;50.61;100077.19;4355239;32;33955;-62
2022/12/21 07:14:41;;;;;;;;;;;;;;;5.36;50.53;100068.97;4359042;32;34345;-62
2022/12/21 07:17:08;;;;;;;;;;;;;;;5.17;50.29;100068.16;4357896;32;34005;-62
2022/12/21 07:19:36;;;;;;;;;;;;;;;5.57;49.54;100065.28;4357785;32;32616;-62
2022/12/21 07:22:04;;;;;;;;;;;;;;;5.10;51.69;100076.41;4353639;32;34292;-62
2022/12/21 07:24:32;;;;;;;;;;;;;;;5.55;49.85;100067.19;4356522;32;34411;-62
2022/12/21 07:26:59;;;;;;;;;;;;;;;4.80;50.33;100081.34;4356843;32;33271;-62
2022/12/21 07:29:26;;;;;;;;;;;;;;;5.28;49.78;100076.47;4355131;32;34389;-62
2022/12/21 07:31:53;;;;;;;;;;;;;;;4.92;50.50;100077.28;4357583;32;34197;-62
2022/12/21 07:34:21;;;;;;;;;;;;;;;5.03;50.37;100069.66;4360008;32;33843;-62
2022/12/21 07:36:48;;;;;;;;;;;;;;;4.94;50.05;100079.84;4358150;32;33009;-63
2022/12/21 07:39:15;;;;;;;;;;;;;;;4.58;51.43;100075.28;4356494;32;33387;-63
2022/12/21 07:41:43;;;;;;;;;;;;;;;4.57;50.61;100073.56;4354764;32;34914;-63
2022/12/21 07:44:11;;;;;;;;;;;;;;;4.79;50.10;100060.22;4353344;32;33829;-64
2022/12/21 07:46:41;;;;;;;;;;;;;;;4.47;50.89;100069.62;4357555;32;33948;-64
2022/12/21 07:49:10;;;;;;;;;;;;;;;4.75;49.67;100063.91;4357230;32;36540;-63
2022/12/21 07:51:37;;;;;;;;;;;;;;;3.40;52.91;100065.28;4354252;32;33691;-63
2022/12/21 07:54:04;;;;;;;;;;;;;;;4.47;51.86;100073.12;4358730;32;35801;-63
2022/12/21 07:56:32;;;;;;;;;;;;;;;4.67;50.37;100073.06;4358478;32;33840;-63
2022/12/21 07:58:59;;;;;;;;;;;;;;;4.62;50.51;100063.59;4366243;32;34218;-63
2022/12/21 08:01:27;;;;;;;;;;;;;;;4.96;50.28;100059.41;4357932;32;33047;-63
2022/12/21 08:03:57;;;;;;;;;;;;;;;5.16;49.21;100063.78;4356882;32;34491;-63
2022/12/21 08:06:24;;;;;;;;;;;;;;;4.35;51.43;100071.88;4359249;32;32682;-63
2022/12/21 08:08:52;;;;;;;;;;;;;;;4.59;51.94;100072.56;4366745;32;34157;-63
2022/12/21 08:11:19;;;;;;;;;;;;;;;4.84;50.27;100074.09;4363130;32;34377;-63
2022/12/21 08:13:47;;;;;;;;;;;;;;;5.18;48.85;100070.75;4359972;32;33026;-63
2022/12/21 08:16:15;;;;;;;;;;;;;;;5.11;49.40;100061.34;4355820;32;34085;-63
2022/12/21 08:18:43;;;;;;;;;;;;;;;5.13;49.60;100059.47;4360120;32;33517;-63
2022/12/21 08:21:11;;;;;;;;;;;;;;;5.31;49.09;100055.94;4355459;32;34003;-64
2022/12/21 08:23:39;;;;;;;;;;;;;;;5.21;49.74;100045.84;4356008;32;34214;-67
2022/12/21 08:26:10;;;;;;;;;;;;;;;5.09;49.92;100057.91;4348935;32;32708;-64
2022/12/21 08:28:38;;;;;;;;;;;;;;;4.88;49.95;100068.59;4355530;32;34086;-63
2022/12/21 08:31:09;;;;;;;;;;;;;;;5.43;49.48;100059.81;4357390;32;33878;-63
2022/12/21 08:33:37;;;;;;;;;;;;;;;5.34;48.57;100060.25;4359531;32;35463;-63
2022/12/21 08:36:07;;;;;;;;;;;;;;;5.87;47.39;100061.19;4358986;32;34882;-63
2022/12/21 08:38:35;;;;;;;;;;;;;;;5.32;48.55;100062.12;4360068;32;32570;-63
2022/12/21 08:41:22;;;;;;;;;;;;;;;5.72;47.57;100057.53;4361213;32;32568;-63
2022/12/21 08:43:49;;;;;;;;;;;;;;;3.88;52.14;100055.34;4359404;32;34265;-63
2022/12/21 08:46:17;;;;;;;;;;;;;;;4.87;49.83;100053.59;4355549;32;34317;-63
2022/12/21 08:48:46;;;;;;;;;;;;;;;5.11;49.32;100053.41;4359437;32;34274;-63
2022/12/21 08:51:13;;;;;;;;;;;;;;;4.59;50.37;100058.44;4360420;32;34818;-62
2022/12/21 08:53:40;;;;;;;;;;;;;;;4.80;50.74;100057.47;4362697;32;35310;-63
2022/12/21 08:56:13;;;;;;;;;;;;;;;5.12;49.35;100055.09;4363232;32;35593;-63
2022/12/21 08:58:40;;;;;;;;;;;;;;;5.41;48.87;100052.84;4361515;32;33206;-63
2022/12/21 09:01:07;;;;;;;;;;;;;;;5.41;48.94;100053.72;4358514;32;34374;-63
2022/12/21 09:03:35;;;;;;;;;;;;;;;5.16;49.73;100055.81;4356385;32;34452;-64
2022/12/21 09:06:02;;;;;;;;;;;;;;;4.60;50.68;100060.19;4354052;32;34428;-62
2022/12/21 09:08:35;;;;;;;;;;;;;;;4.92;49.89;100064.00;4358921;32;33161;-65
2022/12/21 09:11:04;;;;;;;;;;;;;;;4.94;50.75;100059.47;4362942;32;34166;-62
2022/12/21 09:13:31;;;;;;;;;;;;;;;4.73;50.38;100056.03;4360120;32;34208;-63
2022/12/21 09:15:59;;;;;;;;;;;;;;;4.85;50.12;100055.47;4350591;32;35252;-63
2022/12/21 09:18:26;;;;;;;;;;;;;;;4.35;52.72;100055.97;4354643;32;33252;-63
2022/12/21 09:20:54;;;;;;;;;;;;;;;4.56;51.86;100053.28;4353100;32;34395;-64
2022/12/21 09:23:22;;;;;;;;;;;;;;;4.44;51.98;100057.34;4361218;32;35473;-64
2022/12/21 09:25:49;;;;;;;;;;;;;;;5.14;50.57;100040.00;4360687;32;33901;-63
2022/12/21 09:28:16;;;;;;;;;;;;;;;5.18;49.96;100028.28;4361639;32;33392;-63
2022/12/21 09:30:44;;;;;;;;;;;;;;;5.51;49.63;100027.56;4359980;32;35666;-63
2022/12/21 09:33:11;;;;;;;;;;;;;;;5.34;50.28;100023.94;4361522;32;34161;-63
2022/12/21 09:35:38;;;;;;;;;;;;;;;5.21;50.37;100020.19;4361367;32;35651;-64
2022/12/21 09:38:06;;;;;;;;;;;;;;;5.16;50.55;100019.53;4356854;32;34063;-62
2022/12/21 09:40:33;;;;;;;;;;;;;;;5.83;48.84;100018.84;4359473;32;34065;-64
2022/12/21 09:43:12;;;;;;;;;;;;;;;5.72;48.33;100012.38;4360021;32;35327;-62
2022/12/21 09:45:43;;;;;;;;;;;;;;;4.98;50.13;100009.81;4348608;32;34387;-63
2022/12/21 09:48:11;;;;;;;;;;;;;;;5.25;49.13;100004.97;4359682;32;33711;-62
2022/12/21 09:50:42;;;;;;;;;;;;;;;4.67;50.38;100008.59;4347083;32;34219;-64
2022/12/21 09:53:14;;;;;;;;;;;;;;;5.23;49.54;100002.41;4352580;32;34485;-62
2022/12/21 09:55:42;;;;;;;;;;;;;;;4.71;52.12;100004.00;4358305;32;35150;-62
2022/12/21 09:58:13;;;;;;;;;;;;;;;5.12;50.42;100007.34;4349466;32;32867;-63
2022/12/21 10:00:40;;;;;;;;;;;;;;;5.51;49.20;100001.88;4355439;32;33123;-64
2022/12/21 10:03:08;;;;;;;;;;;;;;;5.93;49.13;100002.47;4343474;32;33135;-62
2022/12/21 10:05:42;;;;;;;;;;;;;;;5.91;49.48;100004.34;4357533;32;34052;-63
2022/12/21 10:08:29;;;;;;;;;;;;;;;5.38;49.04;99998.12;4335887;32;33967;-62
2022/12/21 10:11:29;;;;;;;;;;;;;;;5.67;48.87;99996.66;4357976;32;34664;-63
2022/12/21 10:14:05;;;;;;;;;;;;;;;5.69;49.85;99993.94;4348991;32;36856;-63
2022/12/21 10:16:51;;;;;;;;;;;;;;;5.77;48.87;100002.34;4359064;32;34145;-63
2022/12/21 10:19:54;;;;;;;;;;;;;;;5.78;48.79;99999.63;4359674;32;33366;-62
2022/12/21 10:22:25;;;;;;;;;;;;;;;6.20;48.21;99990.41;4360277;32;34494;-62
2022/12/21 10:24:53;;;;;;;;;;;;;;;6.31;47.18;99995.16;4357106;32;33927;-64
2022/12/21 10:27:32;;;;;;;;;;;;;;;5.94;49.61;99998.88;4361072;32;34170;-61
2022/12/21 10:30:00;;;;;;;;;;;;;;;6.28;48.88;99984.69;4344392;32;34304;-62
2022/12/21 10:32:28;;;;;;;;;;;;;;;5.78;48.46;99977.53;4362462;32;32644;-63
2022/12/21 10:35:28;;;;;;;;;;;;;;;5.87;48.26;99976.19;4359433;32;34199;-62
2022/12/21 10:37:55;;;;;;;;;;;;;;;5.52;49.38;99985.03;4357395;32;33899;-63
2022/12/21 10:40:24;;;;;;;;;;;;;;;4.53;52.19;99979.22;4356363;32;33691;-61
2022/12/21 10:42:51;;;;;;;;;;;;;;;5.69;49.26;99965.56;4358457;32;32553;-62
2022/12/21 10:45:19;;;;;;;;;;;;;;;5.87;48.32;99962.91;4356456;32;32580;-61
2022/12/21 10:47:53;;;;;;;;;;;;;;;5.06;50.34;99954.56;4357792;32;34010;-63
2022/12/21 10:50:25;;;;;;;;;;;;;;;5.32;50.87;99963.91;4355676;32;32891;-62
2022/12/21 10:52:53;;;;;;;;;;;;;;;5.41;50.09;99960.78;4359743;32;35181;-64
2022/12/21 10:55:26;;;;;;;;;;;;;;;5.59;49.58;99946.59;4356008;32;34418;-63
2022/12/21 10:58:00;;;;;;;;;;;;;;;5.41;50.12;99946.66;4360249;32;34255;-63
2022/12/21 11:00:29;;;;;;;;;;;;;;;5.14;50.32;99944.47;4357795;32;33298;-62
2022/12/21 11:03:00;;;;;;;;;;;;;;;5.28;50.24;99941.13;4354129;32;34878;-64
2022/12/21 11:05:38;;;;;;;;;;;;;;;5.09;50.50;99939.37;4357960;32;34452;-63
2022/12/21 11:08:14;;;;;;;;;;;;;;;5.42;49.89;99933.31;4356427;32;34112;-64
2022/12/21 11:10:43;;;;;;;;;;;;;;;5.32;49.89;99938.22;4356112;32;33131;-64
2022/12/21 11:13:25;;;;;;;;;;;;;;;5.30;50.35;99926.84;4357536;32;34040;-63
2022/12/21 11:15:58;;;;;;;;;;;;;;;5.10;50.32;99919.88;4357376;32;34919;-63
2022/12/21 11:18:39;;;;;;;;;;;;;;;4.05;54.55;99919.56;4359488;32;35388;-64
2022/12/21 11:21:25;;;;;;;;;;;;;;;4.78;51.71;99916.13;4357270;32;33045;-63
2022/12/21 11:23:53;;;;;;;;;;;;;;;5.61;50.31;99923.47;4356825;32;34004;-64
2022/12/21 11:26:21;;;;;;;;;;;;;;;5.56;50.11;99922.84;4340048;32;35801;-63
2022/12/21 11:28:49;;;;;;;;;;;;;;;4.74;52.27;99926.97;4341872;32;33108;-65
2022/12/21 11:31:16;;;;;;;;;;;;;;;4.46;53.39;99924.75;4347414;32;33016;-64
2022/12/21 11:33:44;;;;;;;;;;;;;;;5.73;49.50;99923.78;4359556;32;32710;-63
2022/12/21 11:36:13;;;;;;;;;;;;;;;4.93;51.63;99932.25;4346990;32;34176;-64
2022/12/21 11:38:41;;;;;;;;;;;;;;;5.08;50.64;99915.56;4340416;32;32737;-64
2022/12/21 11:41:23;;;;;;;;;;;;;;;5.43;49.98;99913.81;4358681;32;34006;-63
2022/12/21 11:43:50;;;;;;;;;;;;;;;5.68;49.44;99915.19;4354182;32;34308;-65
2022/12/21 11:46:17;;;;;;;;;;;;;;;5.19;50.10;99910.56;4358791;32;34314;-64
2022/12/21 11:49:25;;;;;;;;;;;;;;;6.05;48.91;99904.38;4356207;32;33901;-64
2022/12/21 11:51:56;;;;;;;;;;;;;;;5.31;49.69;99907.31;4346908;32;33104;-63
2022/12/21 11:54:27;;;;;;;;;;;;;;;6.22;47.79;99903.47;4357352;32;34264;-64
2022/12/21 11:56:54;;;;;;;;;;;;;;;5.98;49.30;99904.78;4359866;32;34435;-64
2022/12/21 11:59:40;;;;;;;;;;;;;;;5.96;49.01;99891.56;4355928;32;35013;-65
2022/12/21 12:02:23;;;;;;;;;;;;;;;6.16;48.06;99887.00;4359372;32;33346;-64
2022/12/21 12:04:55;;;;;;;;;;;;;;;6.64;47.15;99886.06;4357778;32;33851;-65
2022/12/21 12:07:22;;;;;;;;;;;;;;;6.23;48.32;99881.28;4356474;32;34212;-64
2022/12/21 12:10:02;;;;;;;;;;;;;;;6.15;48.92;99887.94;4357066;32;34356;-65
2022/12/21 12:12:49;;;;;;;;;;;;;;;6.30;48.63;99874.66;4358097;32;33314;-65
2022/12/21 12:15:21;;;;;;;;;;;;;;;6.29;48.75;99875.62;4358920;32;35193;-65
2022/12/21 12:18:02;;;;;;;;;;;;;;;6.56;47.24;99871.50;4344473;32;35393;-64
2022/12/21 12:20:43;;;;;;;;;;;;;;;6.48;47.81;99879.91;4356964;32;33052;-64
2022/12/21 12:23:13;;;;;;;;;;;;;;;6.31;48.14;99878.19;4356622;32;33217;-65
2022/12/21 12:25:59;;;;;;;;;;;;;;;6.34;48.36;99887.78;4359145;32;35757;-66
2022/12/21 12:28:27;;;;;;;;;;;;;;;5.76;49.36;99884.63;4352111;32;34473;-64
2022/12/21 12:30:54;;;;;;;;;;;;;;;5.01;51.16;99872.56;4346289;32;34924;-64
2022/12/21 12:33:33;;;;;;;;;;;;;;;6.22;49.17;99871.56;4347594;32;32219;-65
2022/12/21 12:36:20;;;;;;;;;;;;;;;6.32;48.72;99866.59;4356654;32;34921;-65
2022/12/21 12:38:51;;;;;;;;;;;;;;;6.46;47.89;99873.81;4342939;32;34768;-64
2022/12/21 12:41:35;;;;;;;;;;;;;;;7.32;46.04;99863.53;4349267;32;34107;-64
2022/12/21 12:44:04;;;;;;;;;;;;;;;7.63;45.07;99867.91;4358821;32;33375;-64
2022/12/21 12:46:40;;;;;;;;;;;;;;;7.47;46.10;99871.47;4341384;32;32507;-64
2022/12/21 12:49:17;;;;;;;;;;;;;;;7.90;44.67;99873.34;4358961;32;33966;-64
2022/12/21 12:51:44;;;;;;;;;;;;;;;7.48;45.37;99875.03;4355178;32;33967;-64
2022/12/21 12:54:16;;;;;;;;;;;;;;;7.22;46.07;99881.88;4357551;32;34271;-63
2022/12/21 12:56:49;;;;;;;;;;;;;;;6.93;46.76;99878.25;4359828;32;32517;-64
2022/12/21 12:59:21;;;;;;;;;;;;;;;6.40;46.88;99874.16;4349818;32;35560;-65
2022/12/21 13:02:04;;;;;;;;;;;;;;;7.11;46.17;99876.31;4345150;32;34549;-65
2022/12/21 13:04:48;;;;;;;;;;;;;;;5.90;49.97;99877.72;4357951;32;33710;-65
2022/12/21 13:07:20;;;;;;;;;;;;;;;6.04;48.51;99872.59;4347770;32;34042;-66
2022/12/21 13:09:57;;;;;;;;;;;;;;;6.65;48.12;99865.69;4347198;32;34193;-63
2022/12/21 13:12:30;;;;;;;;;;;;;;;6.85;47.50;99862.72;4360330;32;35184;-64
2022/12/21 13:14:59;;;;;;;;;;;;;;;7.66;45.73;99867.72;4358495;32;34515;-64
2022/12/21 13:17:26;;;;;;;;;;;;;;;6.83;46.18;99863.75;4344942;32;34908;-65
2022/12/21 13:19:54;;;;;;;;;;;;;;;7.42;45.52;99872.72;4361101;32;34497;-64
2022/12/21 13:22:22;;;;;;;;;;;;;;;6.91;46.47;99873.03;4345840;32;32722;-64
2022/12/21 13:25:07;;;;;;;;;;;;;;;6.95;47.14;99871.87;4347445;32;31812;-63
2022/12/21 13:27:37;;;;;;;;;;;;;;;6.93;46.80;99872.91;4355668;32;34145;-64